sensor_id;sensor_type;location;lat;lon;timestamp;P1;durP1;ratioP1;P2;durP2;ratioP2
69253;SDS011;56364;41.816;12.448;2023-05-07T00:00:33;7.97;;;3.65;;
69253;SDS011;56364;41.816;12.448;2023-05-07T00:08:03;8.48;;;3.67;;
69253;SDS011;56364;41.816;12.448;2023-05-07T00:10:31;8.05;;;3.83;;
69253;SDS011;56364;41.816;12.448;2023-05-07T00:12:57;8.82;;;3.85;;
69253;SDS011;56364;41.816;12.448;2023-05-07T00:17:49;5.68;;;3.10;;
69253;SDS011;56364;41.816;12.448;2023-05-07T00:20:15;7.60;;;3.72;;
69253;SDS011;56364;41.816;12.448;2023-05-07T00:25:07;8.63;;;3.75;;
69253;SDS011;56364;41.816;12.448;2023-05-07T00:30:37;7.40;;;3.55;;
69253;SDS011;56364;41.816;12.448;2023-05-07T00:44:12;8.38;;;3.92;;
69253;SDS011;56364;41.816;12.448;2023-05-07T00:49:31;8.88;;;3.35;;
69253;SDS011;56364;41.816;12.448;2023-05-07T00:52:01;12.40;;;4.40;;
69253;SDS011;56364;41.816;12.448;2023-05-07T00:54:28;8.93;;;3.95;;
69253;SDS011;56364;41.816;12.448;2023-05-07T00:56:54;9.13;;;4.25;;
69253;SDS011;56364;41.816;12.448;2023-05-07T00:59:21;8.82;;;4.35;;
69253;SDS011;56364;41.816;12.448;2023-05-07T01:01:47;10.20;;;4.60;;
69253;SDS011;56364;41.816;12.448;2023-05-07T01:04:13;9.20;;;4.13;;
69253;SDS011;56364;41.816;12.448;2023-05-07T01:09:16;8.75;;;4.18;;
69253;SDS011;56364;41.816;12.448;2023-05-07T01:11:44;9.65;;;4.57;;
69253;SDS011;56364;41.816;12.448;2023-05-07T01:16:37;7.30;;;3.83;;
69253;SDS011;56364;41.816;12.448;2023-05-07T01:19:03;9.88;;;4.13;;
69253;SDS011;56364;41.816;12.448;2023-05-07T01:21:29;9.48;;;4.80;;
69253;SDS011;56364;41.816;12.448;2023-05-07T01:24:17;8.00;;;4.50;;
69253;SDS011;56364;41.816;12.448;2023-05-07T01:26:47;7.75;;;4.10;;
69253;SDS011;56364;41.816;12.448;2023-05-07T01:29:13;7.40;;;3.45;;
69253;SDS011;56364;41.816;12.448;2023-05-07T01:34:05;10.07;;;4.05;;
69253;SDS011;56364;41.816;12.448;2023-05-07T01:36:32;10.52;;;4.18;;
69253;SDS011;56364;41.816;12.448;2023-05-07T01:41:24;8.40;;;4.30;;
69253;SDS011;56364;41.816;12.448;2023-05-07T01:46:39;9.27;;;3.88;;
69253;SDS011;56364;41.816;12.448;2023-05-07T01:49:26;9.48;;;4.07;;
69253;SDS011;56364;41.816;12.448;2023-05-07T02:02:19;9.60;;;3.95;;
69253;SDS011;56364;41.816;12.448;2023-05-07T02:12:40;7.05;;;3.17;;
69253;SDS011;56364;41.816;12.448;2023-05-07T02:15:07;8.18;;;3.63;;
69253;SDS011;56364;41.816;12.448;2023-05-07T02:17:33;7.82;;;3.83;;
69253;SDS011;56364;41.816;12.448;2023-05-07T02:20:00;11.63;;;3.60;;
69253;SDS011;56364;41.816;12.448;2023-05-07T02:48:41;10.23;;;3.67;;
69253;SDS011;56364;41.816;12.448;2023-05-07T02:51:08;8.23;;;4.10;;
69253;SDS011;56364;41.816;12.448;2023-05-07T02:53:34;8.05;;;3.90;;
69253;SDS011;56364;41.816;12.448;2023-05-07T02:56:00;8.63;;;3.85;;
69253;SDS011;56364;41.816;12.448;2023-05-07T02:58:27;6.70;;;3.22;;
69253;SDS011;56364;41.816;12.448;2023-05-07T03:00:53;8.65;;;3.58;;
69253;SDS011;56364;41.816;12.448;2023-05-07T03:05:58;8.40;;;3.80;;
69253;SDS011;56364;41.816;12.448;2023-05-07T03:08:27;7.40;;;3.33;;
69253;SDS011;56364;41.816;12.448;2023-05-07T03:11:04;6.43;;;3.13;;
69253;SDS011;56364;41.816;12.448;2023-05-07T03:13:31;8.73;;;3.53;;
69253;SDS011;56364;41.816;12.448;2023-05-07T03:15:57;8.95;;;3.33;;
69253;SDS011;56364;41.816;12.448;2023-05-07T03:18:23;7.32;;;3.65;;
69253;SDS011;56364;41.816;12.448;2023-05-07T03:20:49;11.13;;;3.67;;
69253;SDS011;56364;41.816;12.448;2023-05-07T03:23:15;8.57;;;4.28;;
69253;SDS011;56364;41.816;12.448;2023-05-07T03:28:17;8.93;;;4.38;;
69253;SDS011;56364;41.816;12.448;2023-05-07T03:30:44;11.60;;;4.50;;
69253;SDS011;56364;41.816;12.448;2023-05-07T03:33:11;10.98;;;4.68;;
69253;SDS011;56364;41.816;12.448;2023-05-07T03:35:37;11.23;;;4.68;;
69253;SDS011;56364;41.816;12.448;2023-05-07T03:40:29;12.35;;;4.47;;
69253;SDS011;56364;41.816;12.448;2023-05-07T03:50:53;9.77;;;3.95;;
69253;SDS011;56364;41.816;12.448;2023-05-07T03:53:19;9.00;;;3.63;;
69253;SDS011;56364;41.816;12.448;2023-05-07T03:56:03;8.60;;;3.72;;
69253;SDS011;56364;41.816;12.448;2023-05-07T03:58:39;10.35;;;4.03;;
69253;SDS011;56364;41.816;12.448;2023-05-07T04:03:50;7.38;;;3.38;;
69253;SDS011;56364;41.816;12.448;2023-05-07T04:06:16;11.23;;;2.95;;
69253;SDS011;56364;41.816;12.448;2023-05-07T04:11:08;6.25;;;2.70;;
69253;SDS011;56364;41.816;12.448;2023-05-07T04:13:34;9.75;;;3.78;;
69253;SDS011;56364;41.816;12.448;2023-05-07T04:16:01;7.82;;;3.50;;
69253;SDS011;56364;41.816;12.448;2023-05-07T04:18:27;8.85;;;3.30;;
69253;SDS011;56364;41.816;12.448;2023-05-07T04:20:54;7.25;;;3.38;;
69253;SDS011;56364;41.816;12.448;2023-05-07T04:28:36;6.97;;;2.97;;
69253;SDS011;56364;41.816;12.448;2023-05-07T04:31:02;6.72;;;3.25;;
69253;SDS011;56364;41.816;12.448;2023-05-07T04:35:55;6.05;;;3.50;;
69253;SDS011;56364;41.816;12.448;2023-05-07T04:38:21;12.50;;;3.92;;
69253;SDS011;56364;41.816;12.448;2023-05-07T04:40:49;8.50;;;3.60;;
69253;SDS011;56364;41.816;12.448;2023-05-07T04:43:23;9.70;;;3.55;;
69253;SDS011;56364;41.816;12.448;2023-05-07T04:46:08;7.60;;;3.80;;
69253;SDS011;56364;41.816;12.448;2023-05-07T04:48:43;9.55;;;3.17;;
69253;SDS011;56364;41.816;12.448;2023-05-07T04:51:09;5.57;;;2.70;;
69253;SDS011;56364;41.816;12.448;2023-05-07T04:56:01;6.25;;;2.92;;
69253;SDS011;56364;41.816;12.448;2023-05-07T04:58:27;5.32;;;2.67;;
69253;SDS011;56364;41.816;12.448;2023-05-07T05:00:56;7.65;;;3.05;;
69253;SDS011;56364;41.816;12.448;2023-05-07T05:03:23;10.27;;;3.83;;
69253;SDS011;56364;41.816;12.448;2023-05-07T05:08:15;10.75;;;3.42;;
69253;SDS011;56364;41.816;12.448;2023-05-07T05:10:42;7.68;;;2.65;;
69253;SDS011;56364;41.816;12.448;2023-05-07T05:13:08;9.35;;;3.38;;
69253;SDS011;56364;41.816;12.448;2023-05-07T05:15:46;6.28;;;3.13;;
69253;SDS011;56364;41.816;12.448;2023-05-07T05:18:25;5.82;;;3.03;;
69253;SDS011;56364;41.816;12.448;2023-05-07T05:20:51;7.63;;;3.85;;
69253;SDS011;56364;41.816;12.448;2023-05-07T05:23:17;7.30;;;3.33;;
69253;SDS011;56364;41.816;12.448;2023-05-07T05:46:36;9.25;;;3.08;;
69253;SDS011;56364;41.816;12.448;2023-05-07T05:49:13;8.40;;;3.10;;
69253;SDS011;56364;41.816;12.448;2023-05-07T05:51:42;9.05;;;3.60;;
69253;SDS011;56364;41.816;12.448;2023-05-07T05:54:08;7.10;;;3.10;;
69253;SDS011;56364;41.816;12.448;2023-05-07T06:02:01;12.43;;;4.13;;
69253;SDS011;56364;41.816;12.448;2023-05-07T06:07:03;10.75;;;4.40;;
69253;SDS011;56364;41.816;12.448;2023-05-07T06:09:29;10.88;;;4.90;;
69253;SDS011;56364;41.816;12.448;2023-05-07T06:12:08;20.42;;;8.65;;
69253;SDS011;56364;41.816;12.448;2023-05-07T06:14:37;14.95;;;5.72;;
69253;SDS011;56364;41.816;12.448;2023-05-07T06:17:03;10.38;;;4.78;;
69253;SDS011;56364;41.816;12.448;2023-05-07T06:19:30;10.73;;;4.63;;
69253;SDS011;56364;41.816;12.448;2023-05-07T06:22:02;9.60;;;4.47;;
69253;SDS011;56364;41.816;12.448;2023-05-07T06:24:28;10.85;;;5.22;;
69253;SDS011;56364;41.816;12.448;2023-05-07T06:26:54;8.68;;;4.22;;
69253;SDS011;56364;41.816;12.448;2023-05-07T06:37:08;9.70;;;4.80;;
69253;SDS011;56364;41.816;12.448;2023-05-07T06:42:01;10.02;;;3.72;;
69253;SDS011;56364;41.816;12.448;2023-05-07T06:44:27;11.32;;;4.60;;
69253;SDS011;56364;41.816;12.448;2023-05-07T06:49:19;11.95;;;4.43;;
69253;SDS011;56364;41.816;12.448;2023-05-07T06:51:45;11.30;;;4.43;;
69253;SDS011;56364;41.816;12.448;2023-05-07T06:54:11;8.43;;;3.95;;
69253;SDS011;56364;41.816;12.448;2023-05-07T06:59:03;8.15;;;3.28;;
69253;SDS011;56364;41.816;12.448;2023-05-07T07:01:30;8.65;;;3.72;;
69253;SDS011;56364;41.816;12.448;2023-05-07T07:06:31;6.40;;;3.38;;
69253;SDS011;56364;41.816;12.448;2023-05-07T07:24:32;6.35;;;3.03;;
69253;SDS011;56364;41.816;12.448;2023-05-07T07:29:36;7.53;;;3.05;;
69253;SDS011;56364;41.816;12.448;2023-05-07T07:34:28;5.20;;;2.40;;
69253;SDS011;56364;41.816;12.448;2023-05-07T07:36:56;5.57;;;2.60;;
69253;SDS011;56364;41.816;12.448;2023-05-07T07:39:22;5.88;;;2.70;;
69253;SDS011;56364;41.816;12.448;2023-05-07T07:41:49;5.20;;;2.40;;
69253;SDS011;56364;41.816;12.448;2023-05-07T07:46:56;6.20;;;2.38;;
69253;SDS011;56364;41.816;12.448;2023-05-07T08:05:46;3.72;;;1.50;;
69253;SDS011;56364;41.816;12.448;2023-05-07T08:08:14;3.05;;;1.60;;
69253;SDS011;56364;41.816;12.448;2023-05-07T08:10:46;2.83;;;1.42;;
69253;SDS011;56364;41.816;12.448;2023-05-07T08:13:17;5.10;;;1.67;;
69253;SDS011;56364;41.816;12.448;2023-05-07T08:15:52;4.45;;;1.55;;
69253;SDS011;56364;41.816;12.448;2023-05-07T08:18:18;3.28;;;1.48;;
69253;SDS011;56364;41.816;12.448;2023-05-07T08:20:44;3.65;;;1.48;;
69253;SDS011;56364;41.816;12.448;2023-05-07T08:25:50;3.00;;;1.48;;
69253;SDS011;56364;41.816;12.448;2023-05-07T08:28:17;4.60;;;1.63;;
69253;SDS011;56364;41.816;12.448;2023-05-07T08:30:53;3.30;;;1.58;;
69253;SDS011;56364;41.816;12.448;2023-05-07T08:33:21;1.55;;;1.25;;
69253;SDS011;56364;41.816;12.448;2023-05-07T08:35:52;2.90;;;1.33;;
69253;SDS011;56364;41.816;12.448;2023-05-07T08:38:20;2.97;;;1.55;;
69253;SDS011;56364;41.816;12.448;2023-05-07T08:40:47;2.85;;;1.60;;
69253;SDS011;56364;41.816;12.448;2023-05-07T08:43:14;3.85;;;1.77;;
69253;SDS011;56364;41.816;12.448;2023-05-07T08:45:40;3.53;;;1.65;;
69253;SDS011;56364;41.816;12.448;2023-05-07T08:48:14;3.92;;;1.50;;
69253;SDS011;56364;41.816;12.448;2023-05-07T08:50:40;3.90;;;2.00;;
69253;SDS011;56364;41.816;12.448;2023-05-07T08:53:07;7.05;;;1.80;;
69253;SDS011;56364;41.816;12.448;2023-05-07T08:55:33;3.28;;;1.67;;
69253;SDS011;56364;41.816;12.448;2023-05-07T09:00:25;3.85;;;1.58;;
69253;SDS011;56364;41.816;12.448;2023-05-07T09:02:52;6.85;;;1.45;;
69253;SDS011;56364;41.816;12.448;2023-05-07T09:05:46;2.25;;;1.25;;
69253;SDS011;56364;41.816;12.448;2023-05-07T09:10:37;5.30;;;1.67;;
69253;SDS011;56364;41.816;12.448;2023-05-07T09:15:30;1.73;;;1.23;;
69253;SDS011;56364;41.816;12.448;2023-05-07T09:20:25;2.00;;;1.20;;
69253;SDS011;56364;41.816;12.448;2023-05-07T09:22:55;2.50;;;1.17;;
69253;SDS011;56364;41.816;12.448;2023-05-07T09:27:57;2.13;;;1.50;;
69253;SDS011;56364;41.816;12.448;2023-05-07T09:30:26;4.88;;;1.45;;
69253;SDS011;56364;41.816;12.448;2023-05-07T09:32:53;3.22;;;1.65;;
69253;SDS011;56364;41.816;12.448;2023-05-07T09:35:19;2.90;;;1.45;;
69253;SDS011;56364;41.816;12.448;2023-05-07T09:37:52;2.22;;;1.27;;
69253;SDS011;56364;41.816;12.448;2023-05-07T09:40:21;2.72;;;1.30;;
69253;SDS011;56364;41.816;12.448;2023-05-07T09:42:48;3.35;;;1.30;;
69253;SDS011;56364;41.816;12.448;2023-05-07T09:45:36;4.78;;;1.35;;
69253;SDS011;56364;41.816;12.448;2023-05-07T09:48:01;6.47;;;1.45;;
69253;SDS011;56364;41.816;12.448;2023-05-07T09:50:32;4.10;;;1.30;;
69253;SDS011;56364;41.816;12.448;2023-05-07T09:53:01;1.42;;;1.20;;
69253;SDS011;56364;41.816;12.448;2023-05-07T09:55:27;2.58;;;1.05;;
69253;SDS011;56364;41.816;12.448;2023-05-07T09:57:53;1.55;;;0.93;;
69253;SDS011;56364;41.816;12.448;2023-05-07T10:00:21;2.20;;;1.40;;
69253;SDS011;56364;41.816;12.448;2023-05-07T10:02:53;2.85;;;1.30;;
69253;SDS011;56364;41.816;12.448;2023-05-07T10:05:31;1.80;;;1.10;;
69253;SDS011;56364;41.816;12.448;2023-05-07T10:07:58;1.20;;;1.08;;
69253;SDS011;56364;41.816;12.448;2023-05-07T10:13:35;1.15;;;1.05;;
69253;SDS011;56364;41.816;12.448;2023-05-07T10:16:04;2.45;;;1.20;;
69253;SDS011;56364;41.816;12.448;2023-05-07T10:18:49;1.00;;;0.80;;
69253;SDS011;56364;41.816;12.448;2023-05-07T10:23:41;1.73;;;1.00;;
69253;SDS011;56364;41.816;12.448;2023-05-07T10:26:10;3.00;;;1.50;;
69253;SDS011;56364;41.816;12.448;2023-05-07T10:28:44;1.88;;;0.90;;
69253;SDS011;56364;41.816;12.448;2023-05-07T10:31:27;1.77;;;1.02;;
69253;SDS011;56364;41.816;12.448;2023-05-07T10:34:01;1.95;;;0.80;;
69253;SDS011;56364;41.816;12.448;2023-05-07T10:36:28;1.98;;;1.27;;
69253;SDS011;56364;41.816;12.448;2023-05-07T10:38:55;1.95;;;1.30;;
69253;SDS011;56364;41.816;12.448;2023-05-07T10:41:22;2.08;;;1.05;;
69253;SDS011;56364;41.816;12.448;2023-05-07T10:43:48;3.70;;;1.45;;
69253;SDS011;56364;41.816;12.448;2023-05-07T10:46:15;3.25;;;1.67;;
69253;SDS011;56364;41.816;12.448;2023-05-07T10:54:36;2.15;;;1.05;;
69253;SDS011;56364;41.816;12.448;2023-05-07T11:00:02;2.65;;;1.10;;
69253;SDS011;56364;41.816;12.448;2023-05-07T11:03:04;1.30;;;0.73;;
69253;SDS011;56364;41.816;12.448;2023-05-07T11:05:21;3.25;;;1.60;;
69253;SDS011;56364;41.816;12.448;2023-05-07T11:07:53;2.15;;;1.23;;
69253;SDS011;56364;41.816;12.448;2023-05-07T11:10:20;4.88;;;1.33;;
69253;SDS011;56364;41.816;12.448;2023-05-07T11:12:50;2.28;;;1.13;;
69253;SDS011;56364;41.816;12.448;2023-05-07T11:15:33;1.98;;;1.15;;
69253;SDS011;56364;41.816;12.448;2023-05-07T11:18:02;4.03;;;1.10;;
69253;SDS011;56364;41.816;12.448;2023-05-07T11:26:10;2.75;;;1.08;;
69253;SDS011;56364;41.816;12.448;2023-05-07T11:28:37;2.80;;;1.17;;
69253;SDS011;56364;41.816;12.448;2023-05-07T11:31:03;2.38;;;1.20;;
69253;SDS011;56364;41.816;12.448;2023-05-07T11:33:30;3.67;;;1.27;;
69253;SDS011;56364;41.816;12.448;2023-05-07T11:35:56;1.08;;;0.73;;
69253;SDS011;56364;41.816;12.448;2023-05-07T11:38:23;2.67;;;1.20;;
69253;SDS011;56364;41.816;12.448;2023-05-07T11:40:52;6.03;;;1.20;;
69253;SDS011;56364;41.816;12.448;2023-05-07T11:43:19;2.58;;;1.40;;
69253;SDS011;56364;41.816;12.448;2023-05-07T11:45:45;1.63;;;1.27;;
69253;SDS011;56364;41.816;12.448;2023-05-07T11:48:15;1.98;;;1.35;;
69253;SDS011;56364;41.816;12.448;2023-05-07T11:50:51;2.45;;;1.30;;
69253;SDS011;56364;41.816;12.448;2023-05-07T11:53:18;1.60;;;0.93;;
69253;SDS011;56364;41.816;12.448;2023-05-07T11:55:45;2.00;;;1.27;;
69253;SDS011;56364;41.816;12.448;2023-05-07T11:58:20;2.65;;;1.50;;
69253;SDS011;56364;41.816;12.448;2023-05-07T12:00:50;2.65;;;1.63;;
69253;SDS011;56364;41.816;12.448;2023-05-07T12:03:16;2.10;;;1.23;;
69253;SDS011;56364;41.816;12.448;2023-05-07T12:05:43;2.00;;;1.10;;
69253;SDS011;56364;41.816;12.448;2023-05-07T12:08:17;1.73;;;1.15;;
69253;SDS011;56364;41.816;12.448;2023-05-07T12:10:44;1.90;;;1.20;;
69253;SDS011;56364;41.816;12.448;2023-05-07T12:13:16;2.63;;;1.38;;
69253;SDS011;56364;41.816;12.448;2023-05-07T12:15:42;2.13;;;1.13;;
69253;SDS011;56364;41.816;12.448;2023-05-07T12:18:12;2.30;;;1.10;;
69253;SDS011;56364;41.816;12.448;2023-05-07T12:20:41;2.95;;;1.30;;
69253;SDS011;56364;41.816;12.448;2023-05-07T12:23:12;1.92;;;0.95;;
69253;SDS011;56364;41.816;12.448;2023-05-07T12:25:39;2.75;;;1.00;;
69253;SDS011;56364;41.816;12.448;2023-05-07T12:28:05;1.65;;;1.10;;
69253;SDS011;56364;41.816;12.448;2023-05-07T12:30:32;2.13;;;1.25;;
69253;SDS011;56364;41.816;12.448;2023-05-07T12:33:02;4.68;;;1.58;;
69253;SDS011;56364;41.816;12.448;2023-05-07T12:35:28;1.60;;;1.08;;
69253;SDS011;56364;41.816;12.448;2023-05-07T12:37:55;2.70;;;0.98;;
69253;SDS011;56364;41.816;12.448;2023-05-07T12:40:21;2.25;;;1.33;;
69253;SDS011;56364;41.816;12.448;2023-05-07T12:42:47;1.13;;;0.73;;
69253;SDS011;56364;41.816;12.448;2023-05-07T12:45:19;1.80;;;0.98;;
69253;SDS011;56364;41.816;12.448;2023-05-07T12:47:46;3.60;;;1.65;;
69253;SDS011;56364;41.816;12.448;2023-05-07T12:50:12;1.42;;;0.93;;
69253;SDS011;56364;41.816;12.448;2023-05-07T12:52:39;5.45;;;1.48;;
69253;SDS011;56364;41.816;12.448;2023-05-07T12:55:05;2.95;;;1.20;;
69253;SDS011;56364;41.816;12.448;2023-05-07T12:57:37;1.83;;;0.90;;
69253;SDS011;56364;41.816;12.448;2023-05-07T13:00:04;2.22;;;1.10;;
69253;SDS011;56364;41.816;12.448;2023-05-07T13:02:34;7.32;;;1.23;;
69253;SDS011;56364;41.816;12.448;2023-05-07T13:05:03;2.97;;;1.40;;
69253;SDS011;56364;41.816;12.448;2023-05-07T13:07:29;2.97;;;1.42;;
69253;SDS011;56364;41.816;12.448;2023-05-07T13:09:55;1.85;;;1.20;;
69253;SDS011;56364;41.816;12.448;2023-05-07T13:12:23;1.73;;;1.05;;
69253;SDS011;56364;41.816;12.448;2023-05-07T13:14:49;2.45;;;1.30;;
69253;SDS011;56364;41.816;12.448;2023-05-07T13:17:27;2.58;;;1.20;;
69253;SDS011;56364;41.816;12.448;2023-05-07T13:19:53;2.42;;;1.13;;
69253;SDS011;56364;41.816;12.448;2023-05-07T13:22:19;1.63;;;1.00;;
69253;SDS011;56364;41.816;12.448;2023-05-07T13:24:45;1.25;;;0.88;;
69253;SDS011;56364;41.816;12.448;2023-05-07T13:27:11;1.30;;;0.90;;
69253;SDS011;56364;41.816;12.448;2023-05-07T13:29:38;3.58;;;1.27;;
69253;SDS011;56364;41.816;12.448;2023-05-07T13:32:04;2.08;;;1.10;;
69253;SDS011;56364;41.816;12.448;2023-05-07T13:34:30;3.15;;;1.23;;
69253;SDS011;56364;41.816;12.448;2023-05-07T13:36:56;1.90;;;1.02;;
69253;SDS011;56364;41.816;12.448;2023-05-07T13:39:22;1.92;;;1.17;;
69253;SDS011;56364;41.816;12.448;2023-05-07T13:41:51;3.65;;;1.50;;
69253;SDS011;56364;41.816;12.448;2023-05-07T13:44:18;1.65;;;0.98;;
69253;SDS011;56364;41.816;12.448;2023-05-07T13:46:44;1.67;;;1.20;;
69253;SDS011;56364;41.816;12.448;2023-05-07T13:49:10;2.25;;;1.17;;
69253;SDS011;56364;41.816;12.448;2023-05-07T13:51:37;2.78;;;1.30;;
69253;SDS011;56364;41.816;12.448;2023-05-07T13:54:03;1.38;;;0.90;;
69253;SDS011;56364;41.816;12.448;2023-05-07T13:56:29;3.38;;;1.20;;
69253;SDS011;56364;41.816;12.448;2023-05-07T14:01:27;3.35;;;1.30;;
69253;SDS011;56364;41.816;12.448;2023-05-07T14:03:53;2.85;;;0.95;;
69253;SDS011;56364;41.816;12.448;2023-05-07T14:06:19;3.42;;;1.25;;
69253;SDS011;56364;41.816;12.448;2023-05-07T14:08:46;1.70;;;1.20;;
69253;SDS011;56364;41.816;12.448;2023-05-07T14:11:12;1.98;;;1.05;;
69253;SDS011;56364;41.816;12.448;2023-05-07T14:13:38;1.55;;;1.15;;
69253;SDS011;56364;41.816;12.448;2023-05-07T14:16:05;1.50;;;1.10;;
69253;SDS011;56364;41.816;12.448;2023-05-07T14:18:31;1.88;;;1.08;;
69253;SDS011;56364;41.816;12.448;2023-05-07T14:20:58;1.15;;;0.70;;
69253;SDS011;56364;41.816;12.448;2023-05-07T14:23:24;3.08;;;0.90;;
69253;SDS011;56364;41.816;12.448;2023-05-07T14:25:54;0.95;;;0.80;;
69253;SDS011;56364;41.816;12.448;2023-05-07T14:28:24;5.50;;;1.30;;
69253;SDS011;56364;41.816;12.448;2023-05-07T14:30:50;2.22;;;1.30;;
69253;SDS011;56364;41.816;12.448;2023-05-07T14:33:16;2.88;;;0.90;;
69253;SDS011;56364;41.816;12.448;2023-05-07T14:35:42;1.52;;;1.00;;
69253;SDS011;56364;41.816;12.448;2023-05-07T14:38:14;1.45;;;0.98;;
69253;SDS011;56364;41.816;12.448;2023-05-07T14:40:40;0.98;;;0.73;;
69253;SDS011;56364;41.816;12.448;2023-05-07T14:43:06;1.25;;;0.90;;
69253;SDS011;56364;41.816;12.448;2023-05-07T14:45:32;1.80;;;1.00;;
69253;SDS011;56364;41.816;12.448;2023-05-07T14:47:58;2.40;;;1.00;;
69253;SDS011;56364;41.816;12.448;2023-05-07T14:50:27;2.30;;;1.08;;
69253;SDS011;56364;41.816;12.448;2023-05-07T14:52:53;2.55;;;1.10;;
69253;SDS011;56364;41.816;12.448;2023-05-07T14:55:19;1.52;;;0.85;;
69253;SDS011;56364;41.816;12.448;2023-05-07T14:57:45;1.35;;;0.77;;
69253;SDS011;56364;41.816;12.448;2023-05-07T15:00:11;0.98;;;0.60;;
69253;SDS011;56364;41.816;12.448;2023-05-07T15:02:38;1.15;;;0.82;;
69253;SDS011;56364;41.816;12.448;2023-05-07T15:05:07;1.90;;;0.80;;
69253;SDS011;56364;41.816;12.448;2023-05-07T15:07:33;3.58;;;1.30;;
69253;SDS011;56364;41.816;12.448;2023-05-07T15:09:59;2.10;;;0.90;;
69253;SDS011;56364;41.816;12.448;2023-05-07T15:12:25;1.92;;;1.00;;
69253;SDS011;56364;41.816;12.448;2023-05-07T15:14:51;1.08;;;0.82;;
69253;SDS011;56364;41.816;12.448;2023-05-07T15:17:17;1.05;;;0.75;;
69253;SDS011;56364;41.816;12.448;2023-05-07T15:19:43;2.20;;;0.98;;
69253;SDS011;56364;41.816;12.448;2023-05-07T15:22:09;4.88;;;0.90;;
69253;SDS011;56364;41.816;12.448;2023-05-07T15:27:10;0.93;;;0.57;;
69253;SDS011;56364;41.816;12.448;2023-05-07T15:29:36;3.25;;;0.90;;
69253;SDS011;56364;41.816;12.448;2023-05-07T15:32:02;1.88;;;1.00;;
69253;SDS011;56364;41.816;12.448;2023-05-07T15:34:28;3.10;;;1.15;;
69253;SDS011;56364;41.816;12.448;2023-05-07T15:36:55;1.52;;;1.00;;
69253;SDS011;56364;41.816;12.448;2023-05-07T15:39:22;1.27;;;0.43;;
69253;SDS011;56364;41.816;12.448;2023-05-07T15:41:48;1.13;;;0.85;;
69253;SDS011;56364;41.816;12.448;2023-05-07T15:44:14;1.95;;;1.30;;
69253;SDS011;56364;41.816;12.448;2023-05-07T15:46:40;1.48;;;1.00;;
69253;SDS011;56364;41.816;12.448;2023-05-07T15:49:06;1.27;;;0.98;;
69253;SDS011;56364;41.816;12.448;2023-05-07T15:51:35;1.92;;;0.80;;
69253;SDS011;56364;41.816;12.448;2023-05-07T15:54:01;1.17;;;0.70;;
69253;SDS011;56364;41.816;12.448;2023-05-07T15:56:27;1.30;;;0.90;;
69253;SDS011;56364;41.816;12.448;2023-05-07T15:58:57;1.65;;;0.60;;
69253;SDS011;56364;41.816;12.448;2023-05-07T16:01:23;1.73;;;0.95;;
69253;SDS011;56364;41.816;12.448;2023-05-07T16:03:49;1.98;;;0.95;;
69253;SDS011;56364;41.816;12.448;2023-05-07T16:06:16;1.27;;;0.90;;
69253;SDS011;56364;41.816;12.448;2023-05-07T16:08:42;4.30;;;0.90;;
69253;SDS011;56364;41.816;12.448;2023-05-07T16:11:08;1.02;;;0.70;;
69253;SDS011;56364;41.816;12.448;2023-05-07T16:13:35;2.70;;;1.25;;
69253;SDS011;56364;41.816;12.448;2023-05-07T16:16:01;1.05;;;0.80;;
69253;SDS011;56364;41.816;12.448;2023-05-07T16:18:27;2.05;;;0.82;;
69253;SDS011;56364;41.816;12.448;2023-05-07T16:20:53;0.80;;;0.70;;
69253;SDS011;56364;41.816;12.448;2023-05-07T16:23:20;1.73;;;0.85;;
69253;SDS011;56364;41.816;12.448;2023-05-07T16:25:46;1.80;;;0.95;;
69253;SDS011;56364;41.816;12.448;2023-05-07T16:28:12;0.93;;;0.80;;
69253;SDS011;56364;41.816;12.448;2023-05-07T16:30:38;0.95;;;0.82;;
69253;SDS011;56364;41.816;12.448;2023-05-07T16:33:04;0.88;;;0.70;;
69253;SDS011;56364;41.816;12.448;2023-05-07T16:35:32;1.52;;;0.98;;
69253;SDS011;56364;41.816;12.448;2023-05-07T16:37:58;2.33;;;0.90;;
69253;SDS011;56364;41.816;12.448;2023-05-07T16:40:24;1.63;;;1.10;;
69253;SDS011;56364;41.816;12.448;2023-05-07T16:42:50;1.17;;;0.68;;
69253;SDS011;56364;41.816;12.448;2023-05-07T16:45:16;1.08;;;0.63;;
69253;SDS011;56364;41.816;12.448;2023-05-07T16:47:43;1.15;;;0.60;;
69253;SDS011;56364;41.816;12.448;2023-05-07T16:50:09;3.05;;;1.38;;
69253;SDS011;56364;41.816;12.448;2023-05-07T16:52:35;3.72;;;0.68;;
69253;SDS011;56364;41.816;12.448;2023-05-07T16:55:02;2.10;;;0.85;;
69253;SDS011;56364;41.816;12.448;2023-05-07T16:57:28;1.90;;;1.05;;
69253;SDS011;56364;41.816;12.448;2023-05-07T16:59:54;2.05;;;1.20;;
69253;SDS011;56364;41.816;12.448;2023-05-07T17:02:23;2.42;;;1.00;;
69253;SDS011;56364;41.816;12.448;2023-05-07T17:04:50;3.08;;;1.00;;
69253;SDS011;56364;41.816;12.448;2023-05-07T17:07:16;5.15;;;1.70;;
69253;SDS011;56364;41.816;12.448;2023-05-07T17:09:42;3.60;;;1.63;;
69253;SDS011;56364;41.816;12.448;2023-05-07T17:12:23;3.90;;;1.42;;
69253;SDS011;56364;41.816;12.448;2023-05-07T17:14:55;2.35;;;1.20;;
69253;SDS011;56364;41.816;12.448;2023-05-07T17:17:21;2.38;;;1.00;;
69253;SDS011;56364;41.816;12.448;2023-05-07T17:22:13;1.67;;;1.33;;
69253;SDS011;56364;41.816;12.448;2023-05-07T17:27:05;1.20;;;0.55;;
69253;SDS011;56364;41.816;12.448;2023-05-07T17:29:31;3.53;;;1.00;;
69253;SDS011;56364;41.816;12.448;2023-05-07T17:31:57;1.95;;;1.23;;
69253;SDS011;56364;41.816;12.448;2023-05-07T17:36:49;2.08;;;0.82;;
69253;SDS011;56364;41.816;12.448;2023-05-07T17:39:15;2.10;;;0.90;;
69253;SDS011;56364;41.816;12.448;2023-05-07T17:44:07;2.00;;;1.38;;
69253;SDS011;56364;41.816;12.448;2023-05-07T17:46:33;4.10;;;1.20;;
69253;SDS011;56364;41.816;12.448;2023-05-07T17:51:25;2.85;;;1.40;;
69253;SDS011;56364;41.816;12.448;2023-05-07T17:53:53;4.15;;;1.30;;
69253;SDS011;56364;41.816;12.448;2023-05-07T17:56:20;2.50;;;0.95;;
69253;SDS011;56364;41.816;12.448;2023-05-07T17:58:46;4.15;;;1.20;;
69253;SDS011;56364;41.816;12.448;2023-05-07T18:01:12;2.88;;;1.70;;
69253;SDS011;56364;41.816;12.448;2023-05-07T18:06:04;4.78;;;1.50;;
69253;SDS011;56364;41.816;12.448;2023-05-07T18:08:30;2.63;;;1.45;;
69253;SDS011;56364;41.816;12.448;2023-05-07T18:13:22;2.92;;;1.50;;
69253;SDS011;56364;41.816;12.448;2023-05-07T18:18:14;2.67;;;1.50;;
69253;SDS011;56364;41.816;12.448;2023-05-07T18:20:42;5.00;;;1.85;;
69253;SDS011;56364;41.816;12.448;2023-05-07T18:23:13;2.90;;;1.35;;
69253;SDS011;56364;41.816;12.448;2023-05-07T18:25:42;2.78;;;1.42;;
69253;SDS011;56364;41.816;12.448;2023-05-07T18:28:11;5.07;;;2.15;;
69253;SDS011;56364;41.816;12.448;2023-05-07T18:33:03;2.35;;;1.20;;
69253;SDS011;56364;41.816;12.448;2023-05-07T18:37:55;1.92;;;1.10;;
69253;SDS011;56364;41.816;12.448;2023-05-07T18:40:21;3.15;;;1.50;;
69253;SDS011;56364;41.816;12.448;2023-05-07T18:42:47;3.28;;;1.50;;
69253;SDS011;56364;41.816;12.448;2023-05-07T18:45:13;3.80;;;1.60;;
69253;SDS011;56364;41.816;12.448;2023-05-07T18:47:39;3.65;;;1.48;;
69253;SDS011;56364;41.816;12.448;2023-05-07T18:50:05;2.17;;;1.38;;
69253;SDS011;56364;41.816;12.448;2023-05-07T18:52:31;3.50;;;1.63;;
69253;SDS011;56364;41.816;12.448;2023-05-07T18:54:57;6.93;;;1.88;;
69253;SDS011;56364;41.816;12.448;2023-05-07T18:57:23;2.70;;;1.60;;
69253;SDS011;56364;41.816;12.448;2023-05-07T18:59:52;3.63;;;1.60;;
69253;SDS011;56364;41.816;12.448;2023-05-07T19:02:18;5.18;;;2.05;;
69253;SDS011;56364;41.816;12.448;2023-05-07T19:04:45;4.60;;;1.92;;